createdAt,value
2022-08-09T00:00:46.081Z,50.584190
2022-08-09T00:01:52.625Z,50.584187
2022-08-09T00:02:49.318Z,50.584156
2022-08-09T00:04:05.935Z,50.584236
2022-08-09T00:04:42.869Z,50.584206
2022-08-09T00:06:17.893Z,50.584194
2022-08-09T00:06:44.268Z,50.584244
2022-08-09T00:07:44.457Z,50.584255
2022-08-09T00:08:41.877Z,50.584206
2022-08-09T00:09:41.815Z,50.584198
2022-08-09T00:10:41.789Z,50.584248
2022-08-09T00:11:58.617Z,50.584198
2022-08-09T00:12:42.697Z,50.584202
2022-08-09T00:13:41.713Z,50.584148
2022-08-09T00:14:41.708Z,50.584179
2022-08-09T00:15:59.040Z,50.584194
2022-08-09T00:16:42.600Z,50.584171
2022-08-09T00:18:04.433Z,50.584217
2022-08-09T00:18:42.585Z,50.584187
2022-08-09T00:19:41.613Z,50.584160
2022-08-09T00:20:50.066Z,50.584156
2022-08-09T00:21:55.625Z,50.584133
2022-08-09T00:22:42.492Z,50.584137
2022-08-09T00:23:55.199Z,50.584145
2022-08-09T00:24:42.447Z,50.584167
2022-08-09T00:25:41.516Z,50.584179
2022-08-09T00:26:41.493Z,50.584202
2022-08-09T00:27:43.007Z,50.584110
2022-08-09T00:28:41.489Z,50.584129
2022-08-09T00:30:24.515Z,50.584122
2022-08-09T00:30:42.401Z,50.584129
2022-08-09T00:31:59.150Z,50.584187
2022-08-09T00:32:42.442Z,50.584175
2022-08-09T00:33:50.542Z,50.584175
2022-08-09T00:34:46.427Z,50.584129
2022-08-09T00:35:42.707Z,50.584179
2022-08-09T00:36:41.738Z,50.584141
2022-08-09T00:37:41.299Z,50.584122
2022-08-09T00:38:41.345Z,50.584087
2022-08-09T00:40:13.629Z,50.584156
2022-08-09T00:40:53.183Z,50.584064
2022-08-09T00:44:10.714Z,50.584118
2022-08-09T00:44:13.331Z,50.584068
2022-08-09T00:44:17.020Z,50.584091
2022-08-09T00:44:42.221Z,50.584072
2022-08-09T00:45:50.529Z,50.584080
2022-08-09T00:46:57.712Z,50.584003
2022-08-09T00:47:42.063Z,50.583958
2022-08-09T00:48:41.104Z,50.583969
2022-08-09T00:49:42.178Z,50.584019
2022-08-09T00:50:41.976Z,50.583942
2022-08-09T00:51:54.628Z,50.584003
2022-08-09T00:52:41.977Z,50.584042
2022-08-09T00:53:41.030Z,50.584087
2022-08-09T00:54:41.012Z,50.584091
2022-08-09T00:56:04.459Z,50.584095
2022-08-09T00:56:41.895Z,50.584084
2022-08-09T00:57:40.948Z,50.584152
2022-08-09T00:58:40.944Z,50.584080
2022-08-09T00:59:47.036Z,50.584087
2022-08-09T01:00:41.843Z,50.584126
2022-08-09T01:01:45.008Z,50.584175
2022-08-09T01:02:40.784Z,50.584110
2022-08-09T01:03:46.330Z,50.584152
2022-08-09T01:04:41.822Z,50.584106
2022-08-09T01:05:51.475Z,50.584103
2022-08-09T01:06:54.704Z,50.584072
2022-08-09T01:07:59.902Z,50.584091
2022-08-09T01:08:49.387Z,50.584114
2022-08-09T01:09:41.732Z,50.584114
2022-08-09T01:10:40.714Z,50.584072
2022-08-09T01:11:40.707Z,50.584106
2022-08-09T01:12:41.610Z,50.584072
2022-08-09T01:13:53.378Z,50.584095
2022-08-09T01:14:41.565Z,50.584072
2022-08-09T01:15:40.955Z,50.584145
2022-08-09T01:16:47.404Z,50.584122
2022-08-09T01:17:42.149Z,50.584110
2022-08-09T01:18:40.553Z,50.584145
2022-08-09T01:19:51.742Z,50.584114
2022-08-09T01:20:41.454Z,50.584049
2022-08-09T01:21:44.461Z,50.584045
2022-08-09T01:22:40.551Z,50.584072
2022-08-09T01:24:01.903Z,50.584053
2022-08-09T01:24:41.399Z,50.584126
2022-08-09T01:25:41.667Z,50.584076
2022-08-09T01:26:40.435Z,50.584095
2022-08-09T01:27:40.441Z,50.584068
2022-08-09T01:28:40.383Z,50.584000
2022-08-09T01:29:40.888Z,50.583912
2022-08-09T01:30:51.673Z,50.583881
2022-08-09T01:32:31.908Z,50.583950
2022-08-09T01:32:45.400Z,50.583988
2022-08-09T01:33:40.329Z,50.584030
2022-08-09T01:34:40.303Z,50.584076
2022-08-09T01:35:42.350Z,50.584103
2022-08-09T01:36:40.253Z,50.584156
2022-08-09T01:38:06.354Z,50.584145
2022-08-09T01:38:41.172Z,50.584145
2022-08-09T01:39:41.215Z,50.584118
2022-08-09T01:40:40.190Z,50.584087
2022-08-09T01:41:53.546Z,50.584129
2022-08-09T01:42:41.110Z,50.584179
2022-08-09T01:43:42.234Z,50.584175
2022-08-09T01:44:41.053Z,50.584160
2022-08-09T01:45:46.144Z,50.584164
2022-08-09T01:46:41.662Z,50.584194
2022-08-09T01:47:44.652Z,50.584152
2022-08-09T01:48:41.076Z,50.584137
2022-08-09T01:49:40.030Z,50.584129
2022-08-09T01:50:41.968Z,50.584126
2022-08-09T01:51:43.065Z,50.584148
2022-08-09T01:52:41.336Z,50.584137
2022-08-09T01:53:41.165Z,50.584133
2022-08-09T01:54:39.966Z,50.584122
2022-08-09T01:55:39.911Z,50.584126
2022-08-09T01:56:39.905Z,50.584129
2022-08-09T01:57:45.911Z,50.584122
2022-08-09T01:58:40.853Z,50.584110
2022-08-09T01:59:40.839Z,50.584110
2022-08-09T02:00:40.759Z,50.584106
2022-08-09T02:01:59.346Z,50.584114
2022-08-09T02:02:40.731Z,50.584148
2022-08-09T02:03:39.770Z,50.584133
2022-08-09T02:04:40.604Z,50.584122
2022-08-09T02:06:04.094Z,50.584141
2022-08-09T02:06:45.545Z,50.584110
2022-08-09T02:08:39.387Z,50.584103
2022-08-09T02:08:58.089Z,50.584095
2022-08-09T02:09:41.886Z,50.584072
2022-08-09T02:10:39.652Z,50.584110
2022-08-09T02:11:42.920Z,50.584126
2022-08-09T02:12:39.636Z,50.584091
2022-08-09T02:13:40.669Z,50.584057
2022-08-09T02:14:39.608Z,50.584072
2022-08-09T02:15:49.627Z,50.584057
2022-08-09T02:16:53.307Z,50.584053
2022-08-09T02:18:09.763Z,50.584064
2022-08-09T02:18:43.063Z,50.584072
2022-08-09T02:19:43.237Z,50.584084
2022-08-09T02:20:39.474Z,50.584084
2022-08-09T02:21:39.453Z,50.584106
2022-08-09T02:22:39.737Z,50.584057
2022-08-09T02:23:39.734Z,50.584042
2022-08-09T02:24:39.458Z,50.584122
2022-08-09T02:25:42.449Z,50.584038
2022-08-09T02:26:40.282Z,50.583988
2022-08-09T02:27:57.621Z,50.584023
2022-08-09T02:28:40.282Z,50.584042
2022-08-09T02:29:39.331Z,50.584007
2022-08-09T02:30:39.293Z,50.583996
2022-08-09T02:31:39.291Z,50.583904
2022-08-09T02:32:39.239Z,50.584015
2022-08-09T02:34:07.022Z,50.584045
2022-08-09T02:34:51.818Z,50.584080
2022-08-09T02:35:46.362Z,50.584053
2022-08-09T02:36:42.058Z,50.584030
2022-08-09T02:37:39.175Z,50.584042
2022-08-09T02:38:40.163Z,50.584034
2022-08-09T02:39:42.533Z,50.584103
2022-08-09T02:40:39.169Z,50.584118
2022-08-09T02:41:39.094Z,50.584068
2022-08-09T02:42:39.100Z,50.584061
2022-08-09T02:43:54.270Z,50.584049
2022-08-09T02:44:39.974Z,50.584084
2022-08-09T02:45:39.062Z,50.584057
2022-08-09T02:46:39.035Z,50.584061
2022-08-09T02:47:57.229Z,50.584045
2022-08-09T02:48:39.889Z,50.584057
2022-08-09T02:49:41.441Z,50.584026
2022-08-09T02:50:38.906Z,50.584019
2022-08-09T02:51:40.391Z,50.584045
2022-08-09T02:52:38.898Z,50.584072
2022-08-09T02:53:38.942Z,50.584019
2022-08-09T02:54:54.480Z,50.584045
2022-08-09T02:55:57.618Z,50.584061
2022-08-09T02:56:39.735Z,50.584042
2022-08-09T02:57:40.505Z,50.584000
2022-08-09T02:58:39.731Z,50.584053
2022-08-09T02:59:38.785Z,50.584068
2022-08-09T03:00:58.139Z,50.584064
2022-08-09T03:01:43.217Z,50.584053
2022-08-09T03:02:39.710Z,50.584042
2022-08-09T03:04:16.883Z,50.584103
2022-08-09T03:04:39.730Z,50.584095
2022-08-09T03:05:38.672Z,50.584057
2022-08-09T03:06:38.674Z,50.584076
2022-08-09T03:07:38.635Z,50.584106
2022-08-09T03:08:38.614Z,50.584118
2022-08-09T03:09:42.930Z,50.584114
2022-08-09T03:10:38.556Z,50.584122
2022-08-09T03:12:05.205Z,50.584160
2022-08-09T03:12:39.471Z,50.584103
2022-08-09T03:13:43.874Z,50.584095
2022-08-09T03:14:39.460Z,50.584106
2022-08-09T03:15:40.562Z,50.584148
2022-08-09T03:16:44.744Z,50.584152
2022-08-09T03:17:39.454Z,50.584190
2022-08-09T03:18:38.475Z,50.584190
2022-08-09T03:19:58.001Z,50.584202
2022-08-09T03:20:39.332Z,50.584198
2022-08-09T03:21:39.699Z,50.584156
2022-08-09T03:22:42.260Z,50.584171
2022-08-09T03:23:39.342Z,50.584183
2022-08-09T03:24:51.801Z,50.584126
2022-08-09T03:25:59.260Z,50.584099
2022-08-09T03:26:45.085Z,50.584160
2022-08-09T03:27:45.359Z,50.584167
2022-08-09T03:28:39.284Z,50.584103
2022-08-09T03:29:43.245Z,50.584103
2022-08-09T03:30:39.182Z,50.584095
2022-08-09T03:31:42.615Z,50.584133
2022-08-09T03:32:39.155Z,50.584122
2022-08-09T03:33:53.461Z,50.584099
2022-08-09T03:34:39.088Z,50.584110
2022-08-09T03:35:44.294Z,50.584072
2022-08-09T03:36:39.053Z,50.584091
2022-08-09T03:37:54.268Z,50.584099
2022-08-09T03:38:42.123Z,50.584091
2022-08-09T03:39:38.388Z,50.584091
2022-08-09T03:40:38.048Z,50.584103
2022-08-09T03:41:48.302Z,50.584114
2022-08-09T03:42:39.007Z,50.584122
2022-08-09T03:43:38.022Z,50.584095
2022-08-09T03:44:37.961Z,50.584072
2022-08-09T03:46:03.230Z,50.584126
2022-08-09T03:46:39.130Z,50.584087
2022-08-09T03:47:41.871Z,50.584087
2022-08-09T03:48:42.874Z,50.584057
2022-08-09T03:49:38.976Z,50.584091
2022-08-09T03:50:38.793Z,50.584084
2022-08-09T03:51:56.613Z,50.584072
2022-08-09T03:52:38.739Z,50.584103
2022-08-09T03:53:37.864Z,50.584145
2022-08-09T03:54:38.544Z,50.584095
2022-08-09T03:55:40.701Z,50.584095
2022-08-09T03:56:37.766Z,50.584122
2022-08-09T03:57:44.751Z,50.584103
2022-08-09T03:58:38.661Z,50.584061
2022-08-09T03:59:42.988Z,50.584126
2022-08-09T04:00:38.647Z,50.584064
2022-08-09T04:01:37.593Z,50.584064
2022-08-09T04:02:37.667Z,50.584061
2022-08-09T04:03:46.042Z,50.584072
2022-08-09T04:04:38.886Z,50.584076
2022-08-09T04:05:40.399Z,50.584091
2022-08-09T04:06:37.601Z,50.584103
2022-08-09T04:07:52.682Z,50.584076
2022-08-09T04:08:38.462Z,50.584042
2022-08-09T04:09:48.355Z,50.584045
2022-08-09T04:10:38.460Z,50.584068
2022-08-09T04:11:37.506Z,50.584068
2022-08-09T04:12:37.518Z,50.584068
2022-08-09T04:14:37.179Z,50.584057
2022-08-09T04:15:01.153Z,50.584015
2022-08-09T04:16:18.044Z,50.584042
2022-08-09T04:16:38.412Z,50.584019
2022-08-09T04:17:37.320Z,50.584011
2022-08-09T04:18:37.364Z,50.583885
2022-08-09T04:19:51.254Z,50.583961
2022-08-09T04:20:38.290Z,50.584011
2022-08-09T04:21:40.177Z,50.583973
2022-08-09T04:22:37.279Z,50.583904
2022-08-09T04:23:37.255Z,50.583965
2022-08-09T04:24:37.306Z,50.583954
2022-08-09T04:25:37.282Z,50.583874
2022-08-09T04:26:38.302Z,50.583832
2022-08-09T04:27:37.830Z,50.583969
2022-08-09T04:28:42.480Z,50.584122
2022-08-09T04:29:38.084Z,50.583981
2022-08-09T04:30:37.255Z,50.584030
2022-08-09T04:31:47.333Z,50.583965
2022-08-09T04:32:38.732Z,50.583954
2022-08-09T04:33:53.015Z,50.583981
2022-08-09T04:34:38.022Z,50.584091
2022-08-09T04:35:38.085Z,50.584164
2022-08-09T04:36:37.040Z,50.584232
2022-08-09T04:37:45.669Z,50.584251
2022-08-09T04:38:37.983Z,50.584358
2022-08-09T04:39:40.700Z,50.584362
2022-08-09T04:40:37.412Z,50.584301
2022-08-09T04:41:43.449Z,50.584282
2022-08-09T04:42:37.953Z,50.584145
2022-08-09T04:43:36.923Z,50.584129
2022-08-09T04:44:37.928Z,50.584072
2022-08-09T04:45:54.062Z,50.584133
2022-08-09T04:46:59.089Z,50.584141
2022-08-09T04:47:59.264Z,50.584229
2022-08-09T04:48:37.745Z,50.584148
2022-08-09T04:49:53.148Z,50.584122
2022-08-09T04:50:38.309Z,50.584133
2022-08-09T04:51:36.719Z,50.584084
2022-08-09T04:52:37.044Z,50.584103
2022-08-09T04:53:36.653Z,50.584129
2022-08-09T04:54:36.726Z,50.584110
2022-08-09T04:55:39.368Z,50.584110
2022-08-09T04:56:37.611Z,50.584106
2022-08-09T04:57:59.299Z,50.584179
2022-08-09T04:58:37.571Z,50.584190
2022-08-09T04:59:36.527Z,50.584148
2022-08-09T05:00:36.521Z,50.584133
2022-08-09T05:01:36.507Z,50.584114
2022-08-09T05:02:36.537Z,50.584141
2022-08-09T05:03:43.278Z,50.584160
2022-08-09T05:04:37.566Z,50.584206
2022-08-09T05:05:52.676Z,50.584126
2022-08-09T05:06:37.416Z,50.584141
2022-08-09T05:07:36.399Z,50.584202
2022-08-09T05:08:36.369Z,50.584171
2022-08-09T05:09:42.098Z,50.584126
2022-08-09T05:10:37.474Z,50.584072
2022-08-09T05:11:36.305Z,50.584145
2022-08-09T05:12:36.546Z,50.584183
2022-08-09T05:13:38.653Z,50.584217
2022-08-09T05:14:36.246Z,50.584187
2022-08-09T05:15:43.071Z,50.584106
2022-08-09T05:16:58.235Z,50.584118
2022-08-09T05:18:39.192Z,50.584114
2022-08-09T05:18:57.559Z,50.584122
2022-08-09T05:19:45.882Z,50.584148
2022-08-09T05:20:37.528Z,50.584129
2022-08-09T05:21:46.640Z,50.584106
2022-08-09T05:23:50.543Z,50.583992
2022-08-09T05:23:53.882Z,50.583988
2022-08-09T05:24:37.125Z,50.584053
2022-08-09T05:25:36.088Z,50.584053
2022-08-09T05:26:45.544Z,50.584076
2022-08-09T05:27:38.866Z,50.584164
2022-08-09T05:28:37.089Z,50.584103
2022-08-09T05:29:36.004Z,50.584122
2022-08-09T05:30:36.506Z,50.584061
2022-08-09T05:31:44.392Z,50.584091
2022-08-09T05:32:36.980Z,50.584034
2022-08-09T05:33:38.803Z,50.584045
2022-08-09T05:34:36.935Z,50.584076
2022-08-09T05:35:45.046Z,50.584011
2022-08-09T05:36:36.889Z,50.584072
2022-08-09T05:37:46.381Z,50.584114
2022-08-09T05:38:38.965Z,50.584099
2022-08-09T05:39:42.768Z,50.584057
2022-08-09T05:40:36.820Z,50.584049
2022-08-09T05:41:35.905Z,50.584049
2022-08-09T05:42:36.029Z,50.584114
2022-08-09T05:43:35.771Z,50.584133
2022-08-09T05:44:35.915Z,50.584114
2022-08-09T05:45:52.517Z,50.584091
2022-08-09T05:46:36.687Z,50.584118
2022-08-09T05:47:35.700Z,50.584061
2022-08-09T05:48:36.681Z,50.584129
2022-08-09T05:50:29.896Z,50.584103
2022-08-09T05:50:50.943Z,50.583977
2022-08-09T05:51:46.170Z,50.584026
2022-08-09T05:52:36.664Z,50.584061
2022-08-09T05:53:39.523Z,50.583996
2022-08-09T05:54:36.572Z,50.584007
2022-08-09T05:55:35.539Z,50.584057
2022-08-09T05:56:35.535Z,50.584026
2022-08-09T05:57:50.903Z,50.584118
2022-08-09T05:58:36.498Z,50.584148
2022-08-09T05:59:35.489Z,50.583916
2022-08-09T06:00:35.450Z,50.583969
2022-08-09T06:01:42.777Z,50.584156
2022-08-09T06:02:36.677Z,50.584270
2022-08-09T06:03:44.006Z,50.584080
2022-08-09T06:04:36.404Z,50.584072
2022-08-09T06:05:58.147Z,50.584034
2022-08-09T06:06:36.348Z,50.584118
2022-08-09T06:07:35.302Z,50.584175
2022-08-09T06:08:35.280Z,50.584122
2022-08-09T06:09:54.024Z,50.584206
2022-08-09T06:10:36.287Z,50.584068
2022-08-09T06:11:41.069Z,50.584049
2022-08-09T06:12:36.523Z,50.584042
2022-08-09T06:13:35.212Z,50.584053
2022-08-09T06:14:35.206Z,50.584072
2022-08-09T06:15:35.171Z,50.584068
2022-08-09T06:16:35.212Z,50.584080
2022-08-09T06:17:40.096Z,50.584110
2022-08-09T06:18:36.523Z,50.584114
2022-08-09T06:19:35.105Z,50.584114
2022-08-09T06:20:35.099Z,50.584126
2022-08-09T06:21:35.092Z,50.584106
2022-08-09T06:22:35.481Z,50.584122
2022-08-09T06:23:57.410Z,50.584126
2022-08-09T06:24:36.020Z,50.584156
2022-08-09T06:25:34.998Z,50.584087
2022-08-09T06:26:35.025Z,50.584080
2022-08-09T06:27:42.555Z,50.584095
2022-08-09T06:28:35.967Z,50.584068
2022-08-09T06:29:48.252Z,50.584106
2022-08-09T06:30:35.897Z,50.584114
2022-08-09T06:31:39.748Z,50.584061
2022-08-09T06:32:59.109Z,50.584106
2022-08-09T06:33:41.072Z,50.584038
2022-08-09T06:34:35.843Z,50.584049
2022-08-09T06:35:56.021Z,50.584057
2022-08-09T06:36:35.816Z,50.584068
2022-08-09T06:37:52.793Z,50.584091
2022-08-09T06:38:37.700Z,50.584061
2022-08-09T06:39:49.165Z,50.584114
2022-08-09T06:40:35.769Z,50.584068
2022-08-09T06:41:57.479Z,50.584003
2022-08-09T06:42:44.523Z,50.584011
2022-08-09T06:43:35.678Z,50.583988
2022-08-09T06:44:34.682Z,50.584011
2022-08-09T06:46:05.235Z,50.584076
2022-08-09T06:46:40.402Z,50.584064
2022-08-09T06:47:39.880Z,50.583996
2022-08-09T06:48:35.595Z,50.583988
2022-08-09T06:50:12.234Z,50.584015
2022-08-09T06:50:35.594Z,50.584091
2022-08-09T06:51:39.033Z,50.584122
2022-08-09T06:52:35.573Z,50.584145
2022-08-09T06:53:38.457Z,50.584087
2022-08-09T06:54:34.554Z,50.584087
2022-08-09T06:55:34.477Z,50.584015
2022-08-09T06:56:34.455Z,50.584030
2022-08-09T06:58:01.881Z,50.584007
2022-08-09T07:00:46.591Z,50.583992
2022-08-09T07:00:48.647Z,50.584076
2022-08-09T07:00:54.267Z,50.584084
2022-08-09T07:01:53.748Z,50.584061
2022-08-09T07:02:35.694Z,50.584099
2022-08-09T07:03:34.297Z,50.584106
2022-08-09T07:04:35.301Z,50.584106
2022-08-09T07:05:53.676Z,50.584099
2022-08-09T07:06:35.276Z,50.584057
2022-08-09T07:08:00.767Z,50.584061
2022-08-09T07:08:37.130Z,50.584099
2022-08-09T07:09:54.931Z,50.584091
2022-08-09T07:10:35.179Z,50.584103
2022-08-09T07:11:52.063Z,50.584068
2022-08-09T07:12:38.569Z,50.584084
2022-08-09T07:13:45.329Z,50.584110
2022-08-09T07:14:35.146Z,50.584110
2022-08-09T07:16:36.539Z,50.584103
2022-08-09T07:16:42.209Z,50.584080
2022-08-09T07:17:39.654Z,50.584099
2022-08-09T07:18:35.097Z,50.584099
2022-08-09T07:19:34.038Z,50.584087
2022-08-09T07:20:34.016Z,50.584103
2022-08-09T07:21:35.008Z,50.584114
2022-08-09T07:22:34.566Z,50.584106
2022-08-09T07:23:36.250Z,50.584118
2022-08-09T07:24:40.226Z,50.584084
2022-08-09T07:25:42.697Z,50.584080
2022-08-09T07:26:34.921Z,50.584064
2022-08-09T07:27:42.745Z,50.584087
2022-08-09T07:28:35.615Z,50.584084
2022-08-09T07:29:37.710Z,50.584076
2022-08-09T07:30:33.879Z,50.584061
2022-08-09T07:31:38.403Z,50.584061
2022-08-09T07:32:35.144Z,50.584148
2022-08-09T07:33:52.228Z,50.584095
2022-08-09T07:34:34.782Z,50.584068
2022-08-09T07:35:53.227Z,50.584084
2022-08-09T07:36:34.743Z,50.584087
2022-08-09T07:37:43.623Z,50.584129
2022-08-09T07:38:34.723Z,50.584072
2022-08-09T07:39:41.051Z,50.584091
2022-08-09T07:40:54.050Z,50.584118
2022-08-09T07:41:38.876Z,50.584099
2022-08-09T07:42:33.744Z,50.584076
2022-08-09T07:43:33.709Z,50.584095
2022-08-09T07:44:51.940Z,50.584106
2022-08-09T07:45:37.629Z,50.584187
2022-08-09T07:46:34.574Z,50.584133
2022-08-09T07:47:39.590Z,50.584072
2022-08-09T07:48:34.545Z,50.584114
2022-08-09T07:49:33.733Z,50.584171
2022-08-09T07:50:36.429Z,50.584103
2022-08-09T07:52:04.647Z,50.584179
2022-08-09T07:52:35.856Z,50.584164
2022-08-09T07:53:36.479Z,50.584164
2022-08-09T07:54:34.432Z,50.584118
2022-08-09T07:56:03.712Z,50.584091
2022-08-09T07:56:34.383Z,50.584072
2022-08-09T07:57:33.755Z,50.584053
2022-08-09T07:58:33.397Z,50.584076
2022-08-09T07:59:45.459Z,50.584087
2022-08-09T08:00:36.494Z,50.584061
2022-08-09T08:01:34.210Z,50.584038
2022-08-09T08:02:33.592Z,50.584076
2022-08-09T08:03:33.347Z,50.584118
2022-08-09T08:04:33.405Z,50.584099
2022-08-09T08:05:39.154Z,50.584095
2022-08-09T08:06:35.220Z,50.584064
2022-08-09T08:08:43.397Z,50.584080
2022-08-09T08:09:00.513Z,50.584087
2022-08-09T08:09:41.192Z,50.584095
2022-08-09T08:10:34.611Z,50.584106
2022-08-09T08:12:11.583Z,50.584080
2022-08-09T08:12:34.091Z,50.584072
2022-08-09T08:13:38.226Z,50.584038
2022-08-09T08:14:34.061Z,50.584072
2022-08-09T08:15:37.466Z,50.584045
2022-08-09T08:16:32.999Z,50.584080
2022-08-09T08:17:54.228Z,50.584106
2022-08-09T08:18:33.970Z,50.584103
2022-08-09T08:19:33.086Z,50.584095
2022-08-09T08:20:33.425Z,50.584103
2022-08-09T08:21:33.045Z,50.584091
2022-08-09T08:22:33.238Z,50.584118
2022-08-09T08:23:34.958Z,50.584133
2022-08-09T08:24:40.230Z,50.584103
2022-08-09T08:25:44.186Z,50.584084
2022-08-09T08:26:42.179Z,50.584080
2022-08-09T08:27:40.742Z,50.584076
2022-08-09T08:28:35.107Z,50.584118
2022-08-09T08:29:39.205Z,50.584099
2022-08-09T08:30:33.794Z,50.584110
2022-08-09T08:32:02.524Z,50.584126
2022-08-09T08:32:33.747Z,50.584061
2022-08-09T08:33:40.702Z,50.584099
2022-08-09T08:34:34.597Z,50.584091
2022-08-09T08:35:53.001Z,50.584118
2022-08-09T08:36:33.702Z,50.584061
2022-08-09T08:37:41.593Z,50.584118
2022-08-09T08:38:33.618Z,50.584126
2022-08-09T08:39:38.229Z,50.584099
2022-08-09T08:40:33.661Z,50.584095
2022-08-09T08:41:50.415Z,50.584068
2022-08-09T08:42:33.745Z,50.584133
2022-08-09T08:43:32.650Z,50.584091
2022-08-09T08:44:32.537Z,50.584030
2022-08-09T08:45:37.663Z,50.583942
2022-08-09T08:46:59.415Z,50.584003
2022-08-09T08:47:33.588Z,50.584038
2022-08-09T08:48:33.460Z,50.584126
2022-08-09T08:49:38.310Z,50.584072
2022-08-09T08:50:33.471Z,50.584133
2022-08-09T08:51:38.848Z,50.584160
2022-08-09T08:53:37.294Z,50.584080
2022-08-09T08:54:32.357Z,50.584049
2022-08-09T08:55:32.473Z,50.584091
2022-08-09T08:56:32.321Z,50.584103
2022-08-09T08:57:35.167Z,50.584072
2022-08-09T08:58:32.310Z,50.584068
2022-08-09T08:59:46.585Z,50.584152
2022-08-09T09:00:34.708Z,50.584148
2022-08-09T09:01:45.052Z,50.584084
2022-08-09T09:02:33.809Z,50.584110
2022-08-09T09:03:33.069Z,50.584148
2022-08-09T09:04:37.782Z,50.584087
2022-08-09T09:05:58.541Z,50.584106
2022-08-09T09:06:33.167Z,50.584072
2022-08-09T09:07:32.261Z,50.584053
2022-08-09T09:08:32.185Z,50.584019
2022-08-09T09:09:58.171Z,50.584068
2022-08-09T09:10:33.075Z,50.583942
2022-08-09T09:11:33.750Z,50.584042
2022-08-09T09:12:35.436Z,50.584068
2022-08-09T09:13:42.226Z,50.584141
2022-08-09T09:14:32.986Z,50.584209
2022-08-09T09:15:32.085Z,50.584225
2022-08-09T09:16:34.375Z,50.584206
2022-08-09T09:17:48.117Z,50.584129
2022-08-09T09:18:32.971Z,50.584190
2022-08-09T09:19:41.093Z,50.584156
2022-08-09T09:20:32.918Z,50.584183
2022-08-09T09:21:32.301Z,50.584183
2022-08-09T09:22:32.864Z,50.584190
2022-08-09T09:23:37.778Z,50.584160
2022-08-09T09:24:32.798Z,50.584122
2022-08-09T09:26:03.467Z,50.584190
2022-08-09T09:26:32.779Z,50.584175
2022-08-09T09:28:05.567Z,50.584152
2022-08-09T09:29:02.875Z,50.584209
2022-08-09T09:29:45.983Z,50.584175
2022-08-09T09:30:41.065Z,50.584148
2022-08-09T09:32:04.659Z,50.584141
2022-08-09T09:32:34.921Z,50.584145
2022-08-09T09:33:44.919Z,50.584068
2022-08-09T09:34:33.851Z,50.584152
2022-08-09T09:35:33.259Z,50.584114
2022-08-09T09:36:31.601Z,50.584198
2022-08-09T09:37:32.388Z,50.584198
2022-08-09T09:38:37.144Z,50.584209
2022-08-09T09:39:50.394Z,50.584290
2022-08-09T09:40:32.561Z,50.584274
2022-08-09T09:41:32.942Z,50.584408
2022-08-09T09:42:31.833Z,50.584232
2022-08-09T09:43:31.601Z,50.584175
2022-08-09T09:44:32.490Z,50.584045
2022-08-09T09:45:32.082Z,50.584045
2022-08-09T09:46:52.116Z,50.584202
2022-08-09T09:47:33.727Z,50.584087
2022-08-09T09:48:32.355Z,50.584126
2022-08-09T09:49:50.102Z,50.584110
2022-08-09T09:50:32.372Z,50.584129
2022-08-09T09:51:38.023Z,50.584129
2022-08-09T09:52:52.447Z,50.584141
2022-08-09T09:53:57.411Z,50.584099
2022-08-09T09:54:32.376Z,50.584087
2022-08-09T09:55:33.214Z,50.584118
2022-08-09T09:56:33.562Z,50.584099
2022-08-09T09:58:04.139Z,50.584091
2022-08-09T09:58:32.224Z,50.584091
2022-08-09T09:59:35.387Z,50.584057
2022-08-09T10:00:31.195Z,50.584091
2022-08-09T10:01:38.176Z,50.584103
2022-08-09T10:02:32.344Z,50.584099
2022-08-09T10:03:31.196Z,50.584045
2022-08-09T10:04:31.500Z,50.584126
2022-08-09T10:06:03.290Z,50.584019
2022-08-09T10:06:32.681Z,50.584053
2022-08-09T10:07:31.368Z,50.584099
2022-08-09T10:08:31.041Z,50.584053
2022-08-09T10:09:31.079Z,50.584095
2022-08-09T10:10:31.313Z,50.584106
2022-08-09T10:12:00.163Z,50.584095
2022-08-09T10:12:31.924Z,50.584106
2022-08-09T10:13:43.316Z,50.584091
2022-08-09T10:14:33.584Z,50.584080
2022-08-09T10:16:08.996Z,50.584110
2022-08-09T10:16:56.723Z,50.584061
2022-08-09T10:17:51.050Z,50.584091
2022-08-09T10:18:31.917Z,50.584118
2022-08-09T10:19:30.904Z,50.584103
2022-08-09T10:20:35.886Z,50.584084
2022-08-09T10:21:31.889Z,50.584053
2022-08-09T10:22:30.892Z,50.584103
2022-08-09T10:23:30.905Z,50.584091
2022-08-09T10:24:35.897Z,50.584026
2022-08-09T10:25:34.487Z,50.583973
2022-08-09T10:26:31.707Z,50.584049
2022-08-09T10:27:38.521Z,50.584042
2022-08-09T10:28:31.632Z,50.584023
2022-08-09T10:30:12.887Z,50.584064
2022-08-09T10:32:40.133Z,50.584042
2022-08-09T10:34:09.173Z,50.584076
2022-08-09T10:34:33.909Z,50.584110
2022-08-09T10:35:30.716Z,50.584084
2022-08-09T10:36:30.602Z,50.584026
2022-08-09T10:37:30.639Z,50.584030
2022-08-09T10:38:43.224Z,50.584053
2022-08-09T10:39:40.932Z,50.584038
2022-08-09T10:40:37.607Z,50.584053
2022-08-09T10:41:31.547Z,50.584084
2022-08-09T10:42:32.342Z,50.584049
2022-08-09T10:43:36.076Z,50.584072
2022-08-09T10:44:31.774Z,50.584091
2022-08-09T10:45:31.980Z,50.584095
2022-08-09T10:46:31.341Z,50.584068
2022-08-09T10:48:16.614Z,50.584064
2022-08-09T10:48:31.373Z,50.584072
2022-08-09T10:49:50.301Z,50.584087
2022-08-09T10:50:32.963Z,50.584106
2022-08-09T10:51:40.814Z,50.584103
2022-08-09T10:52:31.609Z,50.584076
2022-08-09T10:53:32.037Z,50.584068
2022-08-09T10:54:31.194Z,50.584061
2022-08-09T10:55:35.697Z,50.584072
2022-08-09T10:56:31.142Z,50.584087
2022-08-09T10:57:30.502Z,50.584034
2022-08-09T10:58:30.083Z,50.584072
2022-08-09T10:59:31.109Z,50.584057
2022-08-09T11:00:30.071Z,50.584061
2022-08-09T11:03:11.362Z,50.584076
2022-08-09T11:03:14.512Z,50.584049
2022-08-09T11:03:49.676Z,50.584095
2022-08-09T11:04:32.575Z,50.584068
2022-08-09T11:05:31.094Z,50.584080
2022-08-09T11:06:30.019Z,50.584080
2022-08-09T11:07:58.260Z,50.584110
2022-08-09T11:08:33.389Z,50.584114
2022-08-09T11:09:32.565Z,50.584091
2022-08-09T11:10:30.870Z,50.584099
2022-08-09T11:11:29.955Z,50.584110
2022-08-09T11:12:30.297Z,50.584106
2022-08-09T11:13:51.183Z,50.584114
2022-08-09T11:14:32.073Z,50.584099
2022-08-09T11:15:33.699Z,50.584080
2022-08-09T11:16:33.454Z,50.584076
2022-08-09T11:17:31.043Z,50.584053
2022-08-09T11:18:29.862Z,50.584106
2022-08-09T11:20:19.900Z,50.584091
2022-08-09T11:20:30.797Z,50.584118
2022-08-09T11:21:29.829Z,50.584084
2022-08-09T11:22:29.648Z,50.584068
2022-08-09T11:23:30.105Z,50.584080
2022-08-09T11:24:29.668Z,50.584091
2022-08-09T11:25:44.680Z,50.584133
2022-08-09T11:26:30.660Z,50.584152
2022-08-09T11:28:03.664Z,50.584190